»·PEaware :: N714Q KAPA-KAPA

N714Q :: KAPA-KAPA

FLIGHT INFORMATION

Flight Status: Arrived
Operator: Privately registered:
United States
More flights under this callsign
Pilot: Andre A. (20790)
Aircraft: CESSNA 172 SKYHAWK
(C172)
More flights by this aircraft type
Origin: KAPA Centennial
United States
Destination: KAPA Centennial
United States
More flights between these airports :: More routes between these airports
Route: +NFF
File this flight plan on PilotEdge
Remarks: NFF
Altitude:
(Current/Filed)
0ft
Speed:
(Current/Filed)
0kts
Departed: 27-Nov-18 08:06 PM
Arrived: 27-Nov-18 09:12 PM
Distance/Time
Traveled:
0nm/1:06
Distance/Time
To Go:
Arrived

Flight Plot

Page will automatically refresh every two minutes.

Flight plan parsing failed; only flown route is shown


Map Options




Map Legend


Flown Route
Filed Route
Departure Airport
Arrival Airport
Navaid (VOR, NDB)
Fix

Horizontal Profiles

Position Reports

Time Latitude Longitude Heading Altitude Ground
Speed
27-Nov-18 20:02 39.576880 -104.849170 357 5886ft 13kts
27-Nov-18 20:03 39.580920 -104.849909 272 5886ft 13kts
27-Nov-18 20:04 39.584057 -104.850751 268 5886ft 2kts
27-Nov-18 20:05 39.584057 -104.850755 266 5886ft 0kts
27-Nov-18 20:06 39.584057 -104.850756 266 5886ft 0kts
27-Nov-18 20:07 39.584057 -104.850756 266 5886ft 0kts
27-Nov-18 20:08 39.584057 -104.850756 266 5886ft 0kts
27-Nov-18 20:09 39.570302 -104.851276 176 6007ft 84kts
27-Nov-18 20:10 39.549923 -104.848443 137 6408ft 84kts
27-Nov-18 20:11 39.530175 -104.828503 143 6808ft 92kts
27-Nov-18 20:12 39.504674 -104.803144 141 7068ft 103kts
27-Nov-18 20:13 39.485255 -104.783379 142 7155ft 109kts
27-Nov-18 20:14 39.462116 -104.759622 141 7407ft 100kts
27-Nov-18 20:15 39.441114 -104.735644 137 7619ft 104kts
27-Nov-18 20:16 39.418875 -104.709483 141 7509ft 113kts
27-Nov-18 20:17 39.394684 -104.684834 145 7640ft 106kts
27-Nov-18 20:18 39.369054 -104.688853 195 7716ft 110kts
27-Nov-18 20:19 39.341583 -104.699790 197 8003ft 101kts
27-Nov-18 20:20 39.312659 -104.706752 189 8105ft 104kts
27-Nov-18 20:21 39.282720 -104.713576 190 8086ft 111kts
27-Nov-18 20:22 39.255414 -104.707658 165 8417ft 99kts
27-Nov-18 20:23 39.227777 -104.698045 164 8567ft 102kts
27-Nov-18 20:24 39.199038 -104.685326 161 8487ft 114kts
27-Nov-18 20:25 39.167723 -104.677773 172 8434ft 112kts
27-Nov-18 20:26 39.138694 -104.674551 177 8635ft 104kts
27-Nov-18 20:27 39.109286 -104.673414 178 8649ft 114kts
27-Nov-18 20:28 39.078279 -104.673040 180 8722ft 105kts
27-Nov-18 20:29 39.049171 -104.673895 183 8812ft 108kts
27-Nov-18 20:30 39.018297 -104.678149 190 8727ft 115kts
27-Nov-18 20:31 38.986626 -104.687596 193 8602ft 112kts
27-Nov-18 20:32 38.955272 -104.696450 192 8531ft 111kts
27-Nov-18 20:33 38.926259 -104.712365 192 8296ft 120kts
27-Nov-18 20:34 38.893100 -104.714895 181 8126ft 119kts
27-Nov-18 20:35 38.861741 -104.715773 179 7589ft 110kts
27-Nov-18 20:36 38.836433 -104.715839 178 6683ft 82kts
27-Nov-18 20:37 38.817889 -104.715903 179 6187ft 41kts
27-Nov-18 20:38 38.811142 -104.716629 265 6187ft 0kts
27-Nov-18 20:39 38.811142 -104.716629 265 6187ft 0kts
27-Nov-18 20:40 38.809359 -104.718463 252 6187ft 1kts
27-Nov-18 20:41 38.809229 -104.719058 269 6187ft 0kts
27-Nov-18 20:42 38.809229 -104.719058 269 6187ft 0kts
27-Nov-18 20:43 38.809229 -104.719058 269 6187ft 0kts
27-Nov-18 20:44 38.809229 -104.719058 269 6187ft 0kts
27-Nov-18 20:45 38.809229 -104.719058 269 6187ft 0kts
27-Nov-18 20:46 38.809229 -104.719058 269 6187ft 0kts
27-Nov-18 20:47 38.809229 -104.719058 269 6187ft 0kts
27-Nov-18 20:48 38.809229 -104.719058 269 6187ft 0kts
27-Nov-18 20:49 38.809229 -104.719058 269 6187ft 0kts
27-Nov-18 20:50 38.809229 -104.719058 269 6187ft 0kts
27-Nov-18 20:51 38.809229 -104.719058 269 6187ft 0kts
27-Nov-18 20:52 38.809229 -104.719058 269 6187ft 0kts
27-Nov-18 20:53 38.809229 -104.719058 269 6187ft 0kts
27-Nov-18 20:54 38.809229 -104.719058 269 6187ft 0kts
27-Nov-18 20:55 38.809229 -104.719058 269 6187ft 0kts
27-Nov-18 20:56 38.809229 -104.719058 269 6187ft 0kts
27-Nov-18 20:57 38.809229 -104.719058 269 6187ft 0kts
27-Nov-18 20:58 38.809229 -104.719058 269 6187ft 0kts
27-Nov-18 20:59 38.809229 -104.719058 269 6187ft 0kts
27-Nov-18 21:00 38.809229 -104.719058 269 6187ft 0kts
27-Nov-18 21:01 38.809229 -104.719058 269 6187ft 0kts
27-Nov-18 21:02 38.809229 -104.719058 269 6187ft 0kts
27-Nov-18 21:03 38.809229 -104.719058 269 6187ft 0kts
27-Nov-18 21:04 38.809229 -104.719058 269 6187ft 0kts
27-Nov-18 21:05 38.809229 -104.719059 269 6187ft 0kts
27-Nov-18 21:06 38.809229 -104.719059 269 6187ft 0kts
27-Nov-18 21:07 38.809229 -104.719059 269 6187ft 0kts
27-Nov-18 21:08 38.809229 -104.719059 269 6187ft 0kts
27-Nov-18 21:09 38.809229 -104.719060 269 6187ft 0kts
27-Nov-18 21:10 38.809229 -104.719060 269 6187ft 0kts
27-Nov-18 21:11 38.809229 -104.719060 269 6187ft 0kts
27-Nov-18 21:12 38.809229 -104.719061 269 6187ft 0kts
27-Nov-18 21:13 38.809229 -104.719061 269 6187ft 0kts
27-Nov-18 21:14 38.809229 -104.719061 269 6187ft 0kts
27-Nov-18 21:15 39.575836 -104.848764 87 5883ft 0kts
27-Nov-18 21:16 39.575836 -104.848764 87 5883ft 0kts
27-Nov-18 21:17 39.575836 -104.848764 87 5883ft 0kts
27-Nov-18 21:18 39.575836 -104.848764 87 5883ft 0kts

Navigation Log

Ident Type
Flight plan parsing failed, navigation log unavailable